Time;durP1;ratioP1;P1;durP2;ratioP2;P2;SDS_P1;SDS_P2;PMS_P1;PMS_P2;Temp;Humidity;BMP_temperature;BMP_pressure;BME280_temperature;BME280_humidity;BME280_pressure;Samples;Min_cycle;Max_cycle;Signal;HPM_P1;HPM_P2
2022/08/08 00:01:45;;;;;;;;;;;;;;;25.82;33.32;100640.13;5382767;32;44657;-77
2022/08/08 00:05:13;;;;;;;;;;;;;;;26.37;32.18;100633.75;5395079;32;46047;-68
2022/08/08 00:08:25;;;;;;;;;;;;;;;25.59;33.64;100623.56;5395326;32;35573;-76
2022/08/08 00:11:31;;;;;;;;;;;;;;;25.22;34.28;100623.59;5387923;32;36360;-69
2022/08/08 00:15:12;;;;;;;;;;;;;;;24.97;34.85;100616.19;5410797;32;35688;-67
2022/08/08 00:18:31;;;;;;;;;;;;;;;25.23;34.30;100614.53;5386212;32;35048;-76
2022/08/08 00:21:38;;;;;;;;;;;;;;;24.95;35.32;100612.81;5395658;32;35470;-75
2022/08/08 00:24:45;;;;;;;;;;;;;;;25.71;33.97;100610.75;5398116;32;44791;-76
2022/08/08 00:27:49;;;;;;;;;;;;;;;25.70;33.99;100611.75;5382606;32;34663;-68
2022/08/08 00:30:52;;;;;;;;;;;;;;;24.77;36.00;100604.66;5387435;32;34710;-69
2022/08/08 00:37:44;;;;;;;;;;;;;;;24.74;36.36;100597.75;5386542;32;35468;-76
2022/08/08 00:41:21;;;;;;;;;;;;;;;24.54;36.87;100596.09;5400938;32;35398;-77
2022/08/08 00:45:02;;;;;;;;;;;;;;;25.06;36.17;100596.53;5395488;32;35961;-68
2022/08/08 00:48:40;;;;;;;;;;;;;;;25.24;35.98;100596.56;5388599;32;36278;-68
2022/08/08 00:51:45;;;;;;;;;;;;;;;24.94;36.93;100594.97;5380032;32;43187;-67
2022/08/08 00:55:02;;;;;;;;;;;;;;;24.92;37.15;100600.47;5393761;32;34744;-76
2022/08/08 00:58:22;;;;;;;;;;;;;;;23.98;39.53;100600.34;5399337;32;34718;-68
2022/08/08 01:01:32;;;;;;;;;;;;;;;24.41;39.05;100600.91;5391654;32;35427;-76
2022/08/08 01:04:57;;;;;;;;;;;;;;;24.71;38.68;100589.94;5387891;32;44705;-76
2022/08/08 01:08:15;;;;;;;;;;;;;;;24.37;39.41;100594.16;5401866;32;35644;-68
2022/08/08 01:11:37;;;;;;;;;;;;;;;24.17;39.80;100588.75;5381171;32;36487;-73
2022/08/08 01:14:42;;;;;;;;;;;;;;;24.20;39.03;100593.00;5398229;32;46728;-76
2022/08/08 01:18:21;;;;;;;;;;;;;;;24.66;38.01;100591.38;5409032;32;34631;-68
2022/08/08 01:21:55;;;;;;;;;;;;;;;24.50;38.63;100592.00;5376324;32;34984;-70
2022/08/08 01:25:29;;;;;;;;;;;;;;;23.96;39.84;100593.44;5412181;32;43395;-68
2022/08/08 01:29:02;;;;;;;;;;;;;;;24.07;39.81;100595.12;5391027;32;44498;-75
2022/08/08 01:32:09;;;;;;;;;;;;;;;23.71;40.67;100598.38;5389646;32;46770;-68
2022/08/08 01:35:32;;;;;;;;;;;;;;;23.91;40.47;100588.50;5408473;32;35298;-77
2022/08/08 01:39:04;;;;;;;;;;;;;;;23.86;40.62;100595.25;5391388;32;45300;-77
2022/08/08 01:42:23;;;;;;;;;;;;;;;23.70;41.20;100590.44;5362585;32;44706;-68
2022/08/08 01:45:46;;;;;;;;;;;;;;;24.05;40.41;100598.78;5403923;32;43821;-79
2022/08/08 01:48:59;;;;;;;;;;;;;;;24.01;40.61;100596.53;5395294;32;34865;-74
2022/08/08 01:52:24;;;;;;;;;;;;;;;23.59;41.60;100590.53;5363903;32;35434;-76
2022/08/08 01:55:54;;;;;;;;;;;;;;;24.00;40.64;100587.62;5415311;32;35571;-68
2022/08/08 01:59:24;;;;;;;;;;;;;;;23.81;40.85;100587.62;5388304;32;35590;-69
2022/08/08 02:02:52;;;;;;;;;;;;;;;23.86;40.92;100580.00;5383463;32;35088;-77
2022/08/08 02:06:18;;;;;;;;;;;;;;;23.58;41.53;100573.59;5399360;32;35911;-77
2022/08/08 02:09:41;;;;;;;;;;;;;;;23.34;41.99;100582.00;5391215;32;35635;-76
2022/08/08 02:13:05;;;;;;;;;;;;;;;23.10;42.62;100578.84;5389716;32;36320;-74
2022/08/08 02:16:51;;;;;;;;;;;;;;;24.32;40.11;100573.03;5410783;32;35045;-79
2022/08/08 02:19:53;;;;;;;;;;;;;;;24.16;40.32;100579.03;5380777;32;34800;-76
2022/08/08 02:23:30;;;;;;;;;;;;;;;23.70;41.33;100580.56;5398871;32;45525;-68
2022/08/08 02:26:50;;;;;;;;;;;;;;;23.78;41.36;100588.75;5397568;32;44686;-69
2022/08/08 02:30:13;;;;;;;;;;;;;;;23.62;41.92;100587.59;5393337;32;34782;-75
2022/08/08 02:33:44;;;;;;;;;;;;;;;24.77;39.49;100597.44;5414381;32;35321;-77
2022/08/08 02:37:04;;;;;;;;;;;;;;;24.10;40.83;100609.13;5394752;32;35684;-68
2022/08/08 02:40:11;;;;;;;;;;;;;;;25.21;38.29;100613.84;5388160;32;48358;-75
2022/08/08 02:43:32;;;;;;;;;;;;;;;24.49;40.05;100611.81;5400486;32;35400;-75
2022/08/08 02:47:12;;;;;;;;;;;;;;;24.24;40.65;100611.38;5382521;32;35987;-77
2022/08/08 02:50:36;;;;;;;;;;;;;;;23.40;42.50;100610.97;5382604;32;35149;-68
2022/08/08 02:53:40;;;;;;;;;;;;;;;23.47;42.72;100614.78;5394864;32;43732;-69
2022/08/08 02:57:15;;;;;;;;;;;;;;;24.37;40.44;100611.09;5388662;32;34746;-76
2022/08/08 03:00:21;;;;;;;;;;;;;;;23.96;41.34;100606.87;5368542;32;35295;-68
2022/08/08 03:03:42;;;;;;;;;;;;;;;23.50;42.29;100605.63;5388036;32;35103;-67
2022/08/08 03:07:22;;;;;;;;;;;;;;;23.67;41.89;100618.41;5356706;32;925776;-68
2022/08/08 03:10:28;;;;;;;;;;;;;;;23.41;42.57;100611.81;5407906;32;34977;-77
2022/08/08 03:13:36;;;;;;;;;;;;;;;23.15;43.80;100627.53;5385895;32;45964;-75
2022/08/08 03:17:14;;;;;;;;;;;;;;;23.01;44.51;100625.22;5388196;32;35051;-75
2022/08/08 03:20:26;;;;;;;;;;;;;;;23.04;43.79;100627.63;5407998;32;35099;-66
2022/08/08 03:23:29;;;;;;;;;;;;;;;22.70;44.65;100639.41;5383533;32;35388;-67
2022/08/08 03:26:52;;;;;;;;;;;;;;;24.03;41.20;100635.69;5393860;32;35859;-77
2022/08/08 03:30:06;;;;;;;;;;;;;;;22.97;43.43;100651.44;5389225;32;36404;-68
2022/08/08 03:33:17;;;;;;;;;;;;;;;23.57;41.82;100652.41;5379362;32;46990;-77
2022/08/08 03:36:39;;;;;;;;;;;;;;;22.70;43.77;100644.78;5401423;32;47090;-69
2022/08/08 03:39:43;;;;;;;;;;;;;;;22.61;44.06;100636.69;5389422;32;35141;-68
2022/08/08 03:43:02;;;;;;;;;;;;;;;23.09;43.24;100633.44;5394869;32;35766;-69
2022/08/08 03:46:20;;;;;;;;;;;;;;;22.94;43.78;100641.00;5397470;32;33501;-78
2022/08/08 03:49:26;;;;;;;;;;;;;;;22.73;43.98;100616.00;5390044;32;35658;-76
2022/08/08 03:52:48;;;;;;;;;;;;;;;22.92;43.97;100637.56;5380084;32;35330;-69
2022/08/08 03:55:50;;;;;;;;;;;;;;;23.64;42.31;100644.69;5391686;32;36150;-67
2022/08/08 03:58:59;;;;;;;;;;;;;;;23.56;42.86;100631.88;5390957;32;34897;-69
2022/08/08 04:02:01;;;;;;;;;;;;;;;22.55;45.23;100623.81;5394386;32;35774;-77
2022/08/08 04:05:24;;;;;;;;;;;;;;;23.14;44.14;100637.41;5385542;32;35996;-77
2022/08/08 04:08:29;;;;;;;;;;;;;;;23.34;43.59;100632.97;5413145;32;34648;-68
2022/08/08 04:11:38;;;;;;;;;;;;;;;23.81;42.73;100638.62;5387022;32;45126;-67
2022/08/08 04:14:59;;;;;;;;;;;;;;;23.19;44.24;100632.50;5396579;32;35822;-76
2022/08/08 04:18:01;;;;;;;;;;;;;;;23.45;43.89;100629.34;5408242;32;35397;-74
2022/08/08 04:21:03;;;;;;;;;;;;;;;23.34;44.29;100630.28;5390414;32;35476;-67
2022/08/08 04:24:07;;;;;;;;;;;;;;;23.08;45.09;100632.59;5400490;32;48003;-77
2022/08/08 04:27:28;;;;;;;;;;;;;;;24.45;41.87;100645.31;5383448;32;35737;-67
2022/08/08 04:30:50;;;;;;;;;;;;;;;23.44;44.44;100657.13;5391608;32;35564;-67
2022/08/08 04:33:56;;;;;;;;;;;;;;;23.36;44.63;100654.28;5408638;32;36510;-68
2022/08/08 04:36:57;;;;;;;;;;;;;;;23.56;44.17;100653.34;5386634;32;35457;-67
2022/08/08 04:40:02;;;;;;;;;;;;;;;23.38;44.13;100650.50;5404673;32;35659;-75
2022/08/08 04:43:11;;;;;;;;;;;;;;;23.64;43.96;100644.69;5372907;32;43408;-74
2022/08/08 04:46:14;;;;;;;;;;;;;;;23.61;43.93;100656.50;5409186;32;35183;-67
2022/08/08 04:49:15;;;;;;;;;;;;;;;24.20;42.97;100649.38;5396718;32;35503;-74
2022/08/08 04:52:19;;;;;;;;;;;;;;;25.06;39.88;100655.69;5362689;32;36248;-75
2022/08/08 04:55:26;;;;;;;;;;;;;;;24.49;40.88;100660.16;5407832;32;36908;-67
2022/08/08 04:58:47;;;;;;;;;;;;;;;24.68;40.70;100662.81;5389344;32;35668;-67
2022/08/08 05:01:51;;;;;;;;;;;;;;;23.87;41.07;100672.09;5415872;32;35999;-75
2022/08/08 05:05:00;;;;;;;;;;;;;;;24.31;39.91;100668.91;5387653;32;37155;-77
2022/08/08 05:08:02;;;;;;;;;;;;;;;23.42;41.44;100673.38;5388337;32;36086;-81
2022/08/08 05:11:06;;;;;;;;;;;;;;;24.30;39.85;100659.16;5408473;32;35189;-77
2022/08/08 05:14:10;;;;;;;;;;;;;;;24.39;39.88;100665.53;5389814;32;45082;-76
2022/08/08 05:17:13;;;;;;;;;;;;;;;24.38;39.93;100665.69;5397801;32;36539;-73
2022/08/08 05:20:16;;;;;;;;;;;;;;;25.54;38.25;100671.59;5391550;32;37735;-70
2022/08/08 05:23:18;;;;;;;;;;;;;;;25.84;37.06;100662.41;5400866;32;35511;-73
2022/08/08 05:26:21;;;;;;;;;;;;;;;25.20;37.90;100660.56;5395004;32;35745;-71
2022/08/08 05:29:28;;;;;;;;;;;;;;;25.76;36.89;100651.53;5386977;32;36092;-69
2022/08/08 05:32:30;;;;;;;;;;;;;;;26.22;36.61;100655.03;5407934;32;35497;-73
2022/08/08 05:35:37;;;;;;;;;;;;;;;26.40;36.01;100663.94;5389371;32;46191;-77
2022/08/08 05:38:42;;;;;;;;;;;;;;;26.28;35.89;100659.81;5734960;27;35222;-95
2022/08/08 05:41:48;;;;;;;;;;;;;;;25.37;36.77;100669.69;5423415;32;35344;-95
2022/08/08 05:44:56;;;;;;;;;;;;;;;24.66;38.28;100667.47;5407503;32;34783;-96
2022/08/08 05:48:03;;;;;;;;;;;;;;;25.29;36.97;100670.44;5392807;32;45411;-96
2022/08/08 05:51:16;;;;;;;;;;;;;;;25.43;36.81;100674.47;5406852;32;34369;-96
2022/08/08 05:54:35;;;;;;;;;;;;;;;25.82;36.06;100675.13;5413047;32;33108;-96
2022/08/08 05:58:21;;;;;;;;;;;;;;;26.10;35.25;100672.41;5408670;32;35894;-96
2022/08/08 06:02:03;;;;;;;;;;;;;;;25.11;37.64;100674.87;5438296;27;35813;-96
2022/08/08 06:05:11;;;;;;;;;;;;;;;26.10;35.69;100667.87;5346560;32;35339;-96
2022/08/08 06:08:42;;;;;;;;;;;;;;;26.76;33.66;100660.37;5328705;32;44427;-94
2022/08/08 06:12:01;;;;;;;;;;;;;;;26.50;34.47;100674.66;5331595;32;44231;-94
2022/08/08 06:15:07;;;;;;;;;;;;;;;26.05;35.65;100674.72;5357249;32;35499;-96
2022/08/08 06:18:18;;;;;;;;;;;;;;;26.87;34.26;100671.75;5342183;32;36871;-94
2022/08/08 06:21:27;;;;;;;;;;;;;;;27.10;33.35;100672.06;5324331;32;35768;-96
2022/08/08 06:24:50;;;;;;;;;;;;;;;26.03;34.54;100674.03;5329149;32;36324;-96
2022/08/08 06:27:55;;;;;;;;;;;;;;;26.80;32.73;100670.69;5336495;32;34514;-95
2022/08/08 06:31:00;;;;;;;;;;;;;;;27.90;30.26;100680.72;5315784;32;42972;-96
2022/08/08 06:34:15;;;;;;;;;;;;;;;27.17;31.40;100680.38;5345562;32;34029;-96
2022/08/08 06:37:33;;;;;;;;;;;;;;;26.45;32.77;100691.28;5315242;32;43660;-93
2022/08/08 06:40:47;;;;;;;;;;;;;;;26.38;33.05;100686.66;5312589;32;34714;-96
2022/08/08 06:44:06;;;;;;;;;;;;;;;25.77;34.02;100685.53;5331570;32;33824;-96
2022/08/08 06:47:29;;;;;;;;;;;;;;;27.31;31.62;100685.19;5329319;32;34799;-95
2022/08/08 06:50:55;;;;;;;;;;;;;;;26.14;32.62;100690.78;5347223;32;37073;-96
2022/08/08 06:53:57;;;;;;;;;;;;;;;25.56;33.66;100674.97;5335621;32;35694;-95
2022/08/08 06:57:04;;;;;;;;;;;;;;;25.66;33.05;100683.00;5315146;32;44803;-95
2022/08/08 07:00:12;;;;;;;;;;;;;;;25.99;31.84;100686.09;5298986;32;34810;-94
2022/08/08 07:03:17;;;;;;;;;;;;;;;26.81;30.53;100693.94;5333013;32;35926;-94
2022/08/08 07:06:49;;;;;;;;;;;;;;;26.06;31.87;100687.19;5359314;32;35054;-96
2022/08/08 07:10:02;;;;;;;;;;;;;;;25.49;33.19;100691.88;5351541;32;44680;-95
2022/08/08 07:13:12;;;;;;;;;;;;;;;25.93;32.51;100688.41;5366885;32;35618;-96
2022/08/08 07:16:27;;;;;;;;;;;;;;;24.65;34.27;100689.97;5382919;32;34553;-96
2022/08/08 07:20:03;;;;;;;;;;;;;;;25.75;32.36;100686.66;5323500;32;34976;-93
2022/08/08 07:23:24;;;;;;;;;;;;;;;25.14;33.60;100695.28;5325096;32;33726;-94
2022/08/08 07:26:29;;;;;;;;;;;;;;;26.11;32.15;100692.97;5324916;32;35782;-94
2022/08/08 07:29:37;;;;;;;;;;;;;;;25.66;32.63;100683.84;5312343;32;36204;-93
2022/08/08 07:33:04;;;;;;;;;;;;;;;25.71;32.37;100686.09;5327060;32;45582;-93
2022/08/08 07:36:18;;;;;;;;;;;;;;;25.57;33.07;100692.84;5303775;32;34717;-94
2022/08/08 07:39:22;;;;;;;;;;;;;;;25.59;33.26;100695.38;5302880;32;34702;-94
2022/08/08 07:42:30;;;;;;;;;;;;;;;25.86;32.71;100692.69;5315362;32;43483;-94
2022/08/08 07:45:35;;;;;;;;;;;;;;;27.44;30.44;100693.69;5313836;32;34923;-93
2022/08/08 07:48:58;;;;;;;;;;;;;;;26.94;31.11;100701.63;5331205;32;35414;-93
2022/08/08 07:52:08;;;;;;;;;;;;;;;26.79;31.70;100704.03;5308766;32;44418;-94
2022/08/08 07:55:14;;;;;;;;;;;;;;;26.18;32.89;100699.44;5320764;32;36516;-94
2022/08/08 07:58:26;;;;;;;;;;;;;;;27.64;30.91;100706.91;5332191;32;35747;-95
2022/08/08 08:01:36;;;;;;;;;;;;;;;27.65;31.06;100704.06;5316485;32;44261;-95
2022/08/08 08:04:59;;;;;;;;;;;;;;;27.38;30.84;100724.00;5326332;32;46271;-92
2022/08/08 08:08:05;;;;;;;;;;;;;;;27.16;30.56;100719.16;5313278;32;36002;-94
2022/08/08 08:11:23;;;;;;;;;;;;;;;27.57;30.01;100719.38;5343834;32;36326;-94
2022/08/08 08:14:58;;;;;;;;;;;;;;;27.91;30.09;100717.50;5370022;32;35942;-96
2022/08/08 08:18:17;;;;;;;;;;;;;;;27.57;29.92;100711.28;5340137;32;36133;-96
2022/08/08 08:22:03;;;;;;;;;;;;;;;27.93;29.83;100711.94;5338312;32;42867;-95
2022/08/08 08:25:25;;;;;;;;;;;;;;;29.19;27.51;100707.97;5380936;32;33836;-95
2022/08/08 08:28:48;;;;;;;;;;;;;;;28.55;28.59;100710.53;5387601;32;34054;-95
2022/08/08 08:32:14;;;;;;;;;;;;;;;28.61;28.84;100711.72;5333497;32;34927;-94
2022/08/08 08:36:09;;;;;;;;;;;;;;;29.09;28.16;100710.84;5341432;32;35395;-96
2022/08/08 08:39:30;;;;;;;;;;;;;;;31.72;24.28;100706.09;5344208;32;33500;-96
2022/08/08 08:43:06;;;;;;;;;;;;;;;31.53;24.04;100712.97;5318633;32;36386;-94
2022/08/08 08:46:24;;;;;;;;;;;;;;;32.55;22.09;100711.03;5328429;32;35004;-95
2022/08/08 08:49:35;;;;;;;;;;;;;;;33.87;21.13;100710.22;5284966;32;44248;-94
2022/08/08 08:53:06;;;;;;;;;;;;;;;31.37;24.10;100713.19;5308178;33;34795;-96
2022/08/08 08:56:27;;;;;;;;;;;;;;;30.84;24.84;100729.44;5254927;33;35368;-96
2022/08/08 09:00:23;;;;;;;;;;;;;;;33.67;22.07;100715.59;5233930;33;35262;-96
2022/08/08 09:04:06;;;;;;;;;;;;;;;31.17;25.16;100713.69;5250054;33;36279;-96
2022/08/08 09:07:34;;;;;;;;;;;;;;;33.42;22.06;100710.66;5243245;33;34247;-94
2022/08/08 09:11:19;;;;;;;;;;;;;;;32.58;23.41;100724.22;5152291;33;35109;-96
2022/08/08 09:15:01;;;;;;;;;;;;;;;29.97;27.21;100709.03;5397800;32;984348;-74
2022/08/08 09:18:06;;;;;;;;;;;;;;;29.00;28.83;100717.31;5428242;32;35216;-75
2022/08/08 09:21:09;;;;;;;;;;;;;;;30.15;27.04;100715.91;5429543;32;34124;-76
2022/08/08 09:24:32;;;;;;;;;;;;;;;29.71;27.64;100718.31;5446992;32;45047;-75
2022/08/08 09:27:35;;;;;;;;;;;;;;;28.48;29.60;100725.75;5418313;32;34716;-74
2022/08/08 09:30:59;;;;;;;;;;;;;;;28.18;29.97;100731.75;5431329;32;36643;-74
2022/08/08 09:34:13;;;;;;;;;;;;;;;29.12;28.86;100710.53;5433972;32;35137;-79
2022/08/08 09:37:40;;;;;;;;;;;;;;;28.73;29.53;100728.47;5419770;32;44495;-81
2022/08/08 09:41:04;;;;;;;;;;;;;;;29.08;30.19;100730.81;5433415;32;45641;-77
2022/08/08 09:44:10;;;;;;;;;;;;;;;29.05;31.79;100731.19;5446413;32;33747;-80
2022/08/08 09:47:16;;;;;;;;;;;;;;;29.58;31.61;100724.28;5441473;32;33257;-82
2022/08/08 09:50:29;;;;;;;;;;;;;;;29.74;31.72;100726.06;5436538;32;46269;-76
2022/08/08 09:53:36;;;;;;;;;;;;;;;29.05;33.40;100724.91;5432764;32;35320;-75
2022/08/08 09:56:58;;;;;;;;;;;;;;;28.02;35.10;100727.16;5427958;32;45534;-73
2022/08/08 10:00:01;;;;;;;;;;;;;;;28.27;35.00;100722.63;5442771;32;36707;-69
2022/08/08 10:03:23;;;;;;;;;;;;;;;27.72;35.44;100725.88;5429108;32;34749;-78
2022/08/08 10:06:25;;;;;;;;;;;;;;;27.96;34.92;100717.88;5439915;32;34490;-70
2022/08/08 10:09:32;;;;;;;;;;;;;;;28.14;34.41;100715.00;5434088;32;44311;-67
2022/08/08 10:12:57;;;;;;;;;;;;;;;27.92;34.76;100705.69;5432557;32;35146;-71
2022/08/08 10:16:14;;;;;;;;;;;;;;;29.26;31.78;100700.00;5418369;32;33993;-71
2022/08/08 10:19:19;;;;;;;;;;;;;;;29.92;29.90;100710.41;5427166;32;34278;-78
2022/08/08 10:22:22;;;;;;;;;;;;;;;29.72;30.15;100711.87;5429294;32;35286;-74
2022/08/08 10:25:25;;;;;;;;;;;;;;;28.30;32.81;100728.56;5422325;32;34114;-65
2022/08/08 10:28:37;;;;;;;;;;;;;;;29.53;30.42;100718.53;5420772;32;44778;-70
2022/08/08 10:35:03;;;;;;;;;;;;;;;28.55;32.49;100718.66;5414662;32;44295;-74
2022/08/08 10:38:14;;;;;;;;;;;;;;;28.95;31.96;100703.44;5428928;32;34031;-67
2022/08/08 10:41:17;;;;;;;;;;;;;;;29.55;30.47;100707.53;5415421;32;34189;-67
2022/08/08 10:44:27;;;;;;;;;;;;;;;30.17;29.23;100697.56;5421559;32;34087;-78
2022/08/08 10:47:30;;;;;;;;;;;;;;;29.05;31.53;100693.28;5426815;32;46129;-71
2022/08/08 10:50:44;;;;;;;;;;;;;;;29.24;31.49;100670.41;5416039;32;35284;-75
2022/08/08 10:53:48;;;;;;;;;;;;;;;30.06;30.29;100675.44;5433100;32;34824;-73
2022/08/08 10:57:00;;;;;;;;;;;;;;;29.79;30.35;100684.91;5417089;32;44308;-71
2022/08/08 11:00:05;;;;;;;;;;;;;;;29.35;31.54;100688.13;5434162;32;34100;-69
2022/08/08 11:03:09;;;;;;;;;;;;;;;30.07;29.53;100688.78;5411630;32;33114;-89
2022/08/08 11:06:16;;;;;;;;;;;;;;;29.30;30.79;100698.63;5420854;32;32934;-78
2022/08/08 11:09:18;;;;;;;;;;;;;;;29.09;31.56;100697.31;5440412;32;33969;-80
2022/08/08 11:12:23;;;;;;;;;;;;;;;28.30;32.83;100701.53;5428902;32;33992;-82
2022/08/08 11:15:29;;;;;;;;;;;;;;;28.85;32.37;100689.22;5410855;32;44816;-81
2022/08/08 11:18:32;;;;;;;;;;;;;;;28.73;33.08;100690.59;5407041;32;34069;-74
2022/08/08 11:21:39;;;;;;;;;;;;;;;28.72;33.02;100692.44;5419276;32;35353;-73
2022/08/08 11:24:41;;;;;;;;;;;;;;;29.46;32.43;100695.88;5426931;32;34632;-70
2022/08/08 11:27:46;;;;;;;;;;;;;;;31.08;30.22;100687.66;5415301;32;34155;-71
2022/08/08 11:30:49;;;;;;;;;;;;;;;30.85;31.00;100695.00;5426078;32;33259;-70
2022/08/08 11:33:54;;;;;;;;;;;;;;;30.13;32.05;100693.53;5414311;32;36325;-76
2022/08/08 11:37:16;;;;;;;;;;;;;;;28.63;34.45;100698.88;5422753;32;34534;-70
2022/08/08 11:40:38;;;;;;;;;;;;;;;28.89;34.40;100698.69;5423027;32;34409;-78
2022/08/08 11:43:41;;;;;;;;;;;;;;;29.75;33.51;100694.41;5417549;32;34995;-72
2022/08/08 11:46:43;;;;;;;;;;;;;;;28.84;35.51;100699.19;5428977;32;35141;-65
2022/08/08 11:49:57;;;;;;;;;;;;;;;30.04;33.75;100704.59;5416322;32;33892;-70
2022/08/08 11:52:59;;;;;;;;;;;;;;;31.35;31.85;100697.03;5429368;32;45291;-73
2022/08/08 11:56:01;;;;;;;;;;;;;;;29.28;35.95;100687.13;5415353;32;37639;-77
2022/08/08 11:59:07;;;;;;;;;;;;;;;30.93;33.16;100703.09;5410377;32;33994;-72
2022/08/08 12:02:10;;;;;;;;;;;;;;;29.53;35.93;100701.47;5426477;32;35354;-69
2022/08/08 12:05:33;;;;;;;;;;;;;;;27.70;39.90;100706.31;5412535;32;42878;-79
2022/08/08 12:08:36;;;;;;;;;;;;;;;28.15;39.25;100699.66;5430278;32;35618;-77
2022/08/08 12:11:41;;;;;;;;;;;;;;;27.27;41.69;100705.37;5420862;32;34216;-75
2022/08/08 12:14:43;;;;;;;;;;;;;;;27.33;41.40;100704.75;5420758;32;35435;-86
2022/08/08 12:17:55;;;;;;;;;;;;;;;27.13;41.79;100703.28;5409823;32;34191;-70
2022/08/08 12:20:57;;;;;;;;;;;;;;;26.63;42.94;100702.06;5412819;32;35356;-71
2022/08/08 12:24:01;;;;;;;;;;;;;;;26.59;43.57;100705.22;5433902;32;35883;-74
2022/08/08 12:27:03;;;;;;;;;;;;;;;27.75;40.67;100704.78;5423867;32;36603;-68
2022/08/08 12:30:08;;;;;;;;;;;;;;;27.28;41.86;100712.47;5445593;32;33998;-75
2022/08/08 12:33:23;;;;;;;;;;;;;;;26.40;44.01;100720.53;5439397;32;35131;-74
2022/08/08 12:36:39;;;;;;;;;;;;;;;26.46;44.19;100724.47;5432320;32;34142;-70
2022/08/08 12:39:47;;;;;;;;;;;;;;;26.34;44.61;100717.59;5434442;32;32570;-70
2022/08/08 12:43:02;;;;;;;;;;;;;;;26.16;45.56;100721.13;5417346;32;44635;-74
2022/08/08 12:46:12;;;;;;;;;;;;;;;25.92;46.24;100729.78;5444516;32;34261;-74
2022/08/08 12:49:25;;;;;;;;;;;;;;;26.15;45.76;100719.44;5441631;32;34160;-72
2022/08/08 12:52:52;;;;;;;;;;;;;;;25.70;46.37;100723.91;5437908;32;35430;-70
2022/08/08 12:55:57;;;;;;;;;;;;;;;25.67;46.82;100727.78;5449914;32;35251;-70
2022/08/08 12:59:26;;;;;;;;;;;;;;;25.46;47.53;100730.69;5425410;32;35768;-68
2022/08/08 13:02:56;;;;;;;;;;;;;;;25.69;47.37;100730.31;5437333;32;34500;-69
2022/08/08 13:06:05;;;;;;;;;;;;;;;25.22;49.52;100746.50;5435289;32;44415;-68
2022/08/08 13:09:16;;;;;;;;;;;;;;;24.98;51.10;100752.31;5438588;32;35219;-69
2022/08/08 13:12:31;;;;;;;;;;;;;;;25.68;49.41;100756.38;5455727;32;33921;-69
2022/08/08 13:15:34;;;;;;;;;;;;;;;24.90;51.89;100747.66;5413484;32;44652;-71
2022/08/08 13:18:36;;;;;;;;;;;;;;;25.02;51.12;100749.19;5392260;32;34164;-70
2022/08/08 13:21:58;;;;;;;;;;;;;;;25.52;50.25;100742.72;5420435;32;43966;-71
2022/08/08 13:25:11;;;;;;;;;;;;;;;25.45;48.95;100741.63;5401611;32;32907;-82
2022/08/08 13:28:15;;;;;;;;;;;;;;;25.90;47.09;100736.34;5435170;32;35018;-67
2022/08/08 13:31:18;;;;;;;;;;;;;;;25.84;47.00;100743.16;5421438;32;35484;-70
2022/08/08 13:34:21;;;;;;;;;;;;;;;25.59;47.89;100746.50;5416862;32;34017;-76
2022/08/08 13:37:34;;;;;;;;;;;;;;;26.56;45.61;100754.06;5430377;32;44581;-75
2022/08/08 13:40:56;;;;;;;;;;;;;;;25.60;48.36;100740.12;5415130;32;34337;-76
2022/08/08 13:43:58;;;;;;;;;;;;;;;25.70;47.99;100746.34;5431185;32;44431;-67
2022/08/08 13:47:03;;;;;;;;;;;;;;;25.41;49.14;100742.91;5407773;32;32840;-72
2022/08/08 13:50:08;;;;;;;;;;;;;;;24.61;51.50;100745.00;5407714;32;35286;-68
2022/08/08 13:53:30;;;;;;;;;;;;;;;24.77;51.82;100737.19;5431220;32;47391;-78
2022/08/08 13:56:37;;;;;;;;;;;;;;;24.97;50.71;100743.41;5411586;32;34087;-73
2022/08/08 14:00:05;;;;;;;;;;;;;;;25.68;48.38;100737.53;5423334;32;47119;-75
2022/08/08 14:03:07;;;;;;;;;;;;;;;25.75;47.92;100737.81;5422285;32;36411;-81
2022/08/08 14:06:29;;;;;;;;;;;;;;;26.19;46.94;100719.97;5416447;32;44938;-66
2022/08/08 14:09:39;;;;;;;;;;;;;;;25.73;46.95;100729.91;5431434;32;34084;-82
2022/08/08 14:13:04;;;;;;;;;;;;;;;26.09;46.20;100730.00;5418370;32;44787;-72
2022/08/08 14:16:11;;;;;;;;;;;;;;;25.77;46.39;100722.38;5403681;32;35603;-76
2022/08/08 14:19:17;;;;;;;;;;;;;;;25.33;48.01;100703.28;5412368;32;33569;-71
2022/08/08 14:22:41;;;;;;;;;;;;;;;25.87;46.76;100718.63;5418351;32;35256;-64
2022/08/08 14:25:45;;;;;;;;;;;;;;;25.71;46.98;100721.09;5429101;32;34675;-68
2022/08/08 14:28:56;;;;;;;;;;;;;;;26.04;46.24;100721.50;5406815;32;34276;-68
2022/08/08 14:31:59;;;;;;;;;;;;;;;25.64;46.62;100726.25;5420245;32;44320;-70
2022/08/08 14:35:18;;;;;;;;;;;;;;;25.71;45.16;100720.25;5424161;32;33101;-69
2022/08/08 14:38:27;;;;;;;;;;;;;;;25.14;45.75;100723.03;5403523;32;35130;-69
2022/08/08 14:41:49;;;;;;;;;;;;;;;25.77;44.53;100712.47;5417770;32;35985;-74
2022/08/08 14:44:56;;;;;;;;;;;;;;;26.26;43.38;100702.19;5419310;32;34203;-68
2022/08/08 14:48:01;;;;;;;;;;;;;;;25.72;44.61;100705.78;5428860;32;44599;-76
2022/08/08 14:51:04;;;;;;;;;;;;;;;25.71;44.90;100702.25;5417008;32;35417;-70
2022/08/08 14:54:08;;;;;;;;;;;;;;;26.12;44.35;100705.44;5396267;32;35319;-71
2022/08/08 14:57:11;;;;;;;;;;;;;;;26.84;42.33;100701.69;5408439;32;34714;-71
2022/08/08 15:00:17;;;;;;;;;;;;;;;26.76;41.83;100707.03;5413509;32;34300;-69
2022/08/08 15:03:19;;;;;;;;;;;;;;;26.27;42.46;100720.06;5417262;32;34195;-69
2022/08/08 15:06:23;;;;;;;;;;;;;;;26.79;41.54;100712.09;5431937;32;34320;-69
2022/08/08 15:09:24;;;;;;;;;;;;;;;25.91;43.64;100711.94;5424786;32;35190;-73
2022/08/08 15:12:27;;;;;;;;;;;;;;;26.34;42.26;100699.59;5446503;32;35495;-67
2022/08/08 15:15:29;;;;;;;;;;;;;;;25.21;44.75;100718.75;5416878;32;45119;-69
2022/08/08 15:18:51;;;;;;;;;;;;;;;25.86;43.29;100692.69;5441548;32;34432;-70
2022/08/08 15:21:53;;;;;;;;;;;;;;;26.43;42.92;100705.94;5437108;32;35292;-68
2022/08/08 15:24:55;;;;;;;;;;;;;;;27.11;42.00;100707.97;5446197;32;34111;-69
2022/08/08 15:27:59;;;;;;;;;;;;;;;25.24;47.29;100713.06;5435559;32;44554;-73
2022/08/08 15:31:21;;;;;;;;;;;;;;;25.81;46.87;100713.84;5424876;32;34928;-71
2022/08/08 15:34:44;;;;;;;;;;;;;;;25.63;48.37;100712.91;5446034;32;34472;-71
2022/08/08 15:37:45;;;;;;;;;;;;;;;26.52;45.73;100709.53;5436240;32;33192;-71
2022/08/08 15:40:47;;;;;;;;;;;;;;;25.56;48.68;100722.56;5446703;32;35453;-70
2022/08/08 15:43:49;;;;;;;;;;;;;;;25.94;48.15;100721.56;5433792;32;34547;-68
2022/08/08 15:47:02;;;;;;;;;;;;;;;26.00;48.18;100720.94;5432968;32;44467;-68
2022/08/08 15:50:04;;;;;;;;;;;;;;;25.86;48.58;100719.63;5443085;32;33376;-68
2022/08/08 15:53:22;;;;;;;;;;;;;;;25.20;50.29;100721.59;5426168;32;34087;-67
2022/08/08 15:56:26;;;;;;;;;;;;;;;25.59;49.68;100717.75;5447228;32;34020;-69
2022/08/08 15:59:28;;;;;;;;;;;;;;;25.91;48.64;100713.78;5430308;32;45365;-67
2022/08/08 16:02:51;;;;;;;;;;;;;;;25.70;49.08;100714.03;5422553;32;34772;-67
2022/08/08 16:05:56;;;;;;;;;;;;;;;26.17;47.83;100711.22;5436809;32;34762;-67
2022/08/08 16:09:02;;;;;;;;;;;;;;;25.07;51.10;100716.53;5412383;32;46107;-68
2022/08/08 16:12:24;;;;;;;;;;;;;;;25.10;51.46;100711.69;5441098;32;34299;-67
2022/08/08 16:15:47;;;;;;;;;;;;;;;25.66;49.99;100713.47;5406775;32;36863;-68
2022/08/08 16:19:00;;;;;;;;;;;;;;;25.04;51.79;100711.41;5416111;32;46808;-66
2022/08/08 16:22:04;;;;;;;;;;;;;;;25.72;49.83;100700.41;5431896;32;34834;-67
2022/08/08 16:25:07;;;;;;;;;;;;;;;24.48;52.95;100710.34;5420125;32;35584;-67
2022/08/08 16:28:09;;;;;;;;;;;;;;;25.31;50.23;100703.44;5433248;32;35166;-65
2022/08/08 16:31:33;;;;;;;;;;;;;;;24.99;50.47;100698.41;5418859;32;46376;-68
2022/08/08 16:34:37;;;;;;;;;;;;;;;25.15;50.36;100710.41;5415605;32;35305;-67
2022/08/08 16:37:40;;;;;;;;;;;;;;;24.84;50.64;100710.59;5434262;32;34896;-67
2022/08/08 16:40:48;;;;;;;;;;;;;;;24.81;51.11;100692.94;5421019;32;34570;-68